sensor_id;sensor_type;location;lat;lon;timestamp;P1;durP1;ratioP1;P2;durP2;ratioP2
12947;SDS011;6539;49.476;8.484;2023-08-01T00:00:04;8.20;;;4.90;;
12947;SDS011;6539;49.476;8.484;2023-08-01T00:02:56;9.43;;;5.30;;
12947;SDS011;6539;49.476;8.484;2023-08-01T00:05:43;10.93;;;5.20;;
12947;SDS011;6539;49.476;8.484;2023-08-01T00:08:30;8.93;;;5.17;;
12947;SDS011;6539;49.476;8.484;2023-08-01T00:11:19;9.43;;;5.53;;
12947;SDS011;6539;49.476;8.484;2023-08-01T00:14:05;7.57;;;5.13;;
12947;SDS011;6539;49.476;8.484;2023-08-01T00:16:51;7.83;;;5.50;;
12947;SDS011;6539;49.476;8.484;2023-08-01T00:19:42;10.03;;;4.90;;
12947;SDS011;6539;49.476;8.484;2023-08-01T00:22:32;9.70;;;4.87;;
12947;SDS011;6539;49.476;8.484;2023-08-01T00:25:18;8.67;;;5.33;;
12947;SDS011;6539;49.476;8.484;2023-08-01T00:28:06;9.70;;;5.23;;
12947;SDS011;6539;49.476;8.484;2023-08-01T00:31:05;8.80;;;5.40;;
12947;SDS011;6539;49.476;8.484;2023-08-01T00:33:54;6.63;;;5.53;;
12947;SDS011;6539;49.476;8.484;2023-08-01T00:36:40;6.80;;;5.17;;
12947;SDS011;6539;49.476;8.484;2023-08-01T00:39:26;8.43;;;4.80;;
12947;SDS011;6539;49.476;8.484;2023-08-01T00:42:12;7.77;;;5.27;;
12947;SDS011;6539;49.476;8.484;2023-08-01T00:44:59;11.50;;;6.00;;
12947;SDS011;6539;49.476;8.484;2023-08-01T00:47:48;9.83;;;5.30;;
12947;SDS011;6539;49.476;8.484;2023-08-01T00:50:34;9.40;;;5.17;;
12947;SDS011;6539;49.476;8.484;2023-08-01T00:53:23;7.50;;;5.37;;
12947;SDS011;6539;49.476;8.484;2023-08-01T00:56:09;10.77;;;5.80;;
12947;SDS011;6539;49.476;8.484;2023-08-01T00:58:56;7.40;;;5.10;;
12947;SDS011;6539;49.476;8.484;2023-08-01T01:01:42;12.03;;;5.57;;
12947;SDS011;6539;49.476;8.484;2023-08-01T01:04:30;9.73;;;5.80;;
12947;SDS011;6539;49.476;8.484;2023-08-01T01:07:17;7.80;;;5.50;;
12947;SDS011;6539;49.476;8.484;2023-08-01T01:10:04;8.13;;;5.53;;
12947;SDS011;6539;49.476;8.484;2023-08-01T01:12:51;6.13;;;4.87;;
12947;SDS011;6539;49.476;8.484;2023-08-01T01:15:37;8.90;;;5.60;;
12947;SDS011;6539;49.476;8.484;2023-08-01T01:18:23;8.50;;;4.87;;
12947;SDS011;6539;49.476;8.484;2023-08-01T01:21:09;7.00;;;4.87;;
12947;SDS011;6539;49.476;8.484;2023-08-01T01:23:55;9.40;;;5.43;;
12947;SDS011;6539;49.476;8.484;2023-08-01T01:26:46;9.37;;;5.37;;
12947;SDS011;6539;49.476;8.484;2023-08-01T01:29:36;7.83;;;5.27;;
12947;SDS011;6539;49.476;8.484;2023-08-01T01:32:28;8.67;;;5.10;;
12947;SDS011;6539;49.476;8.484;2023-08-01T01:35:14;9.30;;;5.27;;
12947;SDS011;6539;49.476;8.484;2023-08-01T01:38:01;7.77;;;5.50;;
12947;SDS011;6539;49.476;8.484;2023-08-01T01:40:51;9.57;;;5.17;;
12947;SDS011;6539;49.476;8.484;2023-08-01T01:43:37;8.90;;;5.70;;
12947;SDS011;6539;49.476;8.484;2023-08-01T01:46:23;7.13;;;5.40;;
12947;SDS011;6539;49.476;8.484;2023-08-01T01:49:11;7.37;;;5.03;;
12947;SDS011;6539;49.476;8.484;2023-08-01T01:52:00;8.43;;;5.07;;
12947;SDS011;6539;49.476;8.484;2023-08-01T01:54:51;8.07;;;5.27;;
12947;SDS011;6539;49.476;8.484;2023-08-01T01:57:39;8.33;;;5.60;;
12947;SDS011;6539;49.476;8.484;2023-08-01T02:00:25;9.03;;;5.30;;
12947;SDS011;6539;49.476;8.484;2023-08-01T02:03:11;13.53;;;6.30;;
12947;SDS011;6539;49.476;8.484;2023-08-01T02:05:58;9.10;;;5.57;;
12947;SDS011;6539;49.476;8.484;2023-08-01T02:08:49;7.80;;;5.40;;
12947;SDS011;6539;49.476;8.484;2023-08-01T02:11:37;9.67;;;6.23;;
12947;SDS011;6539;49.476;8.484;2023-08-01T02:14:23;13.83;;;5.90;;
12947;SDS011;6539;49.476;8.484;2023-08-01T02:17:09;8.97;;;6.00;;
12947;SDS011;6539;49.476;8.484;2023-08-01T02:19:55;8.83;;;5.70;;
12947;SDS011;6539;49.476;8.484;2023-08-01T02:22:44;8.77;;;5.30;;
12947;SDS011;6539;49.476;8.484;2023-08-01T02:25:32;10.80;;;5.97;;
12947;SDS011;6539;49.476;8.484;2023-08-01T02:28:29;9.43;;;5.53;;
12947;SDS011;6539;49.476;8.484;2023-08-01T02:31:16;8.50;;;5.47;;
12947;SDS011;6539;49.476;8.484;2023-08-01T02:34:02;7.07;;;5.97;;
12947;SDS011;6539;49.476;8.484;2023-08-01T02:36:51;9.57;;;5.90;;
12947;SDS011;6539;49.476;8.484;2023-08-01T02:39:37;7.97;;;5.83;;
12947;SDS011;6539;49.476;8.484;2023-08-01T02:42:23;13.23;;;6.30;;
12947;SDS011;6539;49.476;8.484;2023-08-01T02:45:09;9.83;;;5.60;;
12947;SDS011;6539;49.476;8.484;2023-08-01T02:47:57;9.57;;;5.77;;
12947;SDS011;6539;49.476;8.484;2023-08-01T02:50:43;9.07;;;5.77;;
12947;SDS011;6539;49.476;8.484;2023-08-01T02:53:36;8.87;;;5.60;;
12947;SDS011;6539;49.476;8.484;2023-08-01T02:56:25;7.80;;;5.60;;
12947;SDS011;6539;49.476;8.484;2023-08-01T02:59:13;8.23;;;5.83;;
12947;SDS011;6539;49.476;8.484;2023-08-01T03:02:00;7.07;;;5.17;;
12947;SDS011;6539;49.476;8.484;2023-08-01T03:04:51;9.77;;;6.07;;
12947;SDS011;6539;49.476;8.484;2023-08-01T03:07:39;8.03;;;5.60;;
12947;SDS011;6539;49.476;8.484;2023-08-01T03:10:28;9.40;;;5.27;;
12947;SDS011;6539;49.476;8.484;2023-08-01T03:13:14;9.73;;;5.30;;
12947;SDS011;6539;49.476;8.484;2023-08-01T03:16:03;7.57;;;5.57;;
12947;SDS011;6539;49.476;8.484;2023-08-01T03:18:49;7.60;;;4.97;;
12947;SDS011;6539;49.476;8.484;2023-08-01T03:21:35;6.70;;;5.17;;
12947;SDS011;6539;49.476;8.484;2023-08-01T03:24:21;7.13;;;4.87;;
12947;SDS011;6539;49.476;8.484;2023-08-01T03:27:07;9.67;;;5.17;;
12947;SDS011;6539;49.476;8.484;2023-08-01T03:29:53;10.30;;;4.63;;
12947;SDS011;6539;49.476;8.484;2023-08-01T03:32:39;7.83;;;5.23;;
12947;SDS011;6539;49.476;8.484;2023-08-01T03:35:26;10.13;;;5.20;;
12947;SDS011;6539;49.476;8.484;2023-08-01T03:38:12;6.87;;;4.93;;
12947;SDS011;6539;49.476;8.484;2023-08-01T03:41:03;7.60;;;5.00;;
12947;SDS011;6539;49.476;8.484;2023-08-01T03:43:50;8.33;;;4.90;;
12947;SDS011;6539;49.476;8.484;2023-08-01T03:46:36;7.37;;;4.20;;
12947;SDS011;6539;49.476;8.484;2023-08-01T03:49:25;7.57;;;3.97;;
12947;SDS011;6539;49.476;8.484;2023-08-01T03:52:11;8.87;;;4.47;;
12947;SDS011;6539;49.476;8.484;2023-08-01T03:54:57;6.90;;;4.73;;
12947;SDS011;6539;49.476;8.484;2023-08-01T03:57:43;6.67;;;4.57;;
12947;SDS011;6539;49.476;8.484;2023-08-01T04:00:29;7.83;;;5.20;;
12947;SDS011;6539;49.476;8.484;2023-08-01T04:03:19;7.03;;;4.77;;
12947;SDS011;6539;49.476;8.484;2023-08-01T04:06:05;8.73;;;4.93;;
12947;SDS011;6539;49.476;8.484;2023-08-01T04:08:53;6.13;;;4.60;;
12947;SDS011;6539;49.476;8.484;2023-08-01T04:11:45;8.53;;;5.03;;
12947;SDS011;6539;49.476;8.484;2023-08-01T04:14:31;8.63;;;5.23;;
12947;SDS011;6539;49.476;8.484;2023-08-01T04:17:18;6.20;;;4.50;;
12947;SDS011;6539;49.476;8.484;2023-08-01T04:20:04;6.30;;;5.17;;
12947;SDS011;6539;49.476;8.484;2023-08-01T04:22:51;7.83;;;5.50;;
12947;SDS011;6539;49.476;8.484;2023-08-01T04:25:37;7.73;;;4.60;;
12947;SDS011;6539;49.476;8.484;2023-08-01T04:28:28;7.87;;;4.33;;
12947;SDS011;6539;49.476;8.484;2023-08-01T04:31:14;7.83;;;4.67;;
12947;SDS011;6539;49.476;8.484;2023-08-01T04:34:00;7.33;;;4.47;;
12947;SDS011;6539;49.476;8.484;2023-08-01T04:36:50;5.90;;;4.50;;
12947;SDS011;6539;49.476;8.484;2023-08-01T04:39:39;7.43;;;4.60;;
12947;SDS011;6539;49.476;8.484;2023-08-01T04:42:29;8.03;;;5.27;;
12947;SDS011;6539;49.476;8.484;2023-08-01T04:45:15;7.37;;;4.87;;
12947;SDS011;6539;49.476;8.484;2023-08-01T04:48:01;6.70;;;4.70;;
12947;SDS011;6539;49.476;8.484;2023-08-01T04:50:48;7.40;;;4.93;;
12947;SDS011;6539;49.476;8.484;2023-08-01T04:53:34;7.67;;;4.93;;
12947;SDS011;6539;49.476;8.484;2023-08-01T04:56:20;7.23;;;5.00;;
12947;SDS011;6539;49.476;8.484;2023-08-01T04:59:06;9.60;;;5.93;;
12947;SDS011;6539;49.476;8.484;2023-08-01T05:01:54;7.80;;;5.00;;
12947;SDS011;6539;49.476;8.484;2023-08-01T05:04:40;8.27;;;5.70;;
12947;SDS011;6539;49.476;8.484;2023-08-01T05:07:28;9.60;;;5.77;;
12947;SDS011;6539;49.476;8.484;2023-08-01T05:10:15;10.17;;;6.07;;
12947;SDS011;6539;49.476;8.484;2023-08-01T05:13:01;9.37;;;5.67;;
12947;SDS011;6539;49.476;8.484;2023-08-01T05:15:48;10.03;;;5.80;;
12947;SDS011;6539;49.476;8.484;2023-08-01T05:18:34;7.93;;;5.13;;
12947;SDS011;6539;49.476;8.484;2023-08-01T05:21:20;8.73;;;4.80;;
12947;SDS011;6539;49.476;8.484;2023-08-01T05:24:06;8.10;;;5.03;;
12947;SDS011;6539;49.476;8.484;2023-08-01T05:26:52;6.73;;;4.80;;
12947;SDS011;6539;49.476;8.484;2023-08-01T05:29:40;6.27;;;5.10;;
12947;SDS011;6539;49.476;8.484;2023-08-01T05:32:26;7.00;;;5.17;;
12947;SDS011;6539;49.476;8.484;2023-08-01T05:35:15;9.77;;;5.93;;
12947;SDS011;6539;49.476;8.484;2023-08-01T05:38:01;10.43;;;6.00;;
12947;SDS011;6539;49.476;8.484;2023-08-01T05:40:47;9.10;;;6.17;;
12947;SDS011;6539;49.476;8.484;2023-08-01T05:43:33;11.93;;;6.90;;
12947;SDS011;6539;49.476;8.484;2023-08-01T05:46:22;8.20;;;6.57;;
12947;SDS011;6539;49.476;8.484;2023-08-01T05:49:11;14.27;;;7.37;;
12947;SDS011;6539;49.476;8.484;2023-08-01T05:51:58;7.87;;;6.43;;
12947;SDS011;6539;49.476;8.484;2023-08-01T05:54:44;10.33;;;6.43;;
12947;SDS011;6539;49.476;8.484;2023-08-01T05:57:32;9.37;;;7.30;;
12947;SDS011;6539;49.476;8.484;2023-08-01T06:00:18;13.53;;;7.30;;
12947;SDS011;6539;49.476;8.484;2023-08-01T06:03:07;10.67;;;7.70;;
12947;SDS011;6539;49.476;8.484;2023-08-01T06:05:53;13.00;;;8.03;;
12947;SDS011;6539;49.476;8.484;2023-08-01T06:08:39;11.27;;;7.70;;
12947;SDS011;6539;49.476;8.484;2023-08-01T06:11:25;11.63;;;7.77;;
12947;SDS011;6539;49.476;8.484;2023-08-01T06:14:12;13.63;;;8.33;;
12947;SDS011;6539;49.476;8.484;2023-08-01T06:16:58;11.30;;;7.63;;
12947;SDS011;6539;49.476;8.484;2023-08-01T06:19:46;13.57;;;6.73;;
12947;SDS011;6539;49.476;8.484;2023-08-01T06:22:33;7.83;;;6.10;;
12947;SDS011;6539;49.476;8.484;2023-08-01T06:25:21;9.27;;;6.63;;
12947;SDS011;6539;49.476;8.484;2023-08-01T06:28:07;10.37;;;6.70;;
12947;SDS011;6539;49.476;8.484;2023-08-01T06:30:53;10.67;;;6.97;;
12947;SDS011;6539;49.476;8.484;2023-08-01T06:33:41;7.63;;;5.37;;
12947;SDS011;6539;49.476;8.484;2023-08-01T06:36:27;7.33;;;5.50;;
12947;SDS011;6539;49.476;8.484;2023-08-01T06:39:13;7.33;;;5.67;;
12947;SDS011;6539;49.476;8.484;2023-08-01T06:42:02;9.87;;;5.33;;
12947;SDS011;6539;49.476;8.484;2023-08-01T06:44:48;9.87;;;5.20;;
12947;SDS011;6539;49.476;8.484;2023-08-01T06:47:34;13.63;;;10.37;;
12947;SDS011;6539;49.476;8.484;2023-08-01T06:50:20;6.90;;;4.90;;
12947;SDS011;6539;49.476;8.484;2023-08-01T06:53:08;8.17;;;4.93;;
12947;SDS011;6539;49.476;8.484;2023-08-01T06:55:57;8.07;;;5.03;;
12947;SDS011;6539;49.476;8.484;2023-08-01T06:58:43;7.47;;;5.07;;
12947;SDS011;6539;49.476;8.484;2023-08-01T07:01:29;6.77;;;4.57;;
12947;SDS011;6539;49.476;8.484;2023-08-01T07:04:20;9.20;;;4.90;;
12947;SDS011;6539;49.476;8.484;2023-08-01T07:07:08;6.50;;;4.50;;
12947;SDS011;6539;49.476;8.484;2023-08-01T07:09:55;6.27;;;4.83;;
12947;SDS011;6539;49.476;8.484;2023-08-01T07:12:41;6.70;;;4.63;;
12947;SDS011;6539;49.476;8.484;2023-08-01T07:15:29;7.07;;;4.63;;
12947;SDS011;6539;49.476;8.484;2023-08-01T07:18:18;6.67;;;4.57;;
12947;SDS011;6539;49.476;8.484;2023-08-01T07:21:04;5.13;;;4.43;;
12947;SDS011;6539;49.476;8.484;2023-08-01T07:23:50;6.77;;;4.27;;
12947;SDS011;6539;49.476;8.484;2023-08-01T07:26:36;6.40;;;4.10;;
12947;SDS011;6539;49.476;8.484;2023-08-01T07:29:22;5.00;;;4.13;;
12947;SDS011;6539;49.476;8.484;2023-08-01T07:32:08;5.00;;;3.97;;
12947;SDS011;6539;49.476;8.484;2023-08-01T07:34:54;6.30;;;3.57;;
12947;SDS011;6539;49.476;8.484;2023-08-01T07:37:40;4.90;;;3.37;;
12947;SDS011;6539;49.476;8.484;2023-08-01T07:40:27;5.80;;;4.20;;
12947;SDS011;6539;49.476;8.484;2023-08-01T07:43:13;4.73;;;3.50;;
12947;SDS011;6539;49.476;8.484;2023-08-01T07:46:01;4.47;;;3.50;;
12947;SDS011;6539;49.476;8.484;2023-08-01T07:48:49;3.17;;;2.87;;
12947;SDS011;6539;49.476;8.484;2023-08-01T07:51:38;4.20;;;3.23;;
12947;SDS011;6539;49.476;8.484;2023-08-01T07:54:24;5.40;;;3.17;;
12947;SDS011;6539;49.476;8.484;2023-08-01T07:57:15;3.93;;;3.23;;
12947;SDS011;6539;49.476;8.484;2023-08-01T08:00:04;3.90;;;3.17;;
12947;SDS011;6539;49.476;8.484;2023-08-01T08:02:56;4.33;;;3.30;;
12947;SDS011;6539;49.476;8.484;2023-08-01T08:05:43;5.57;;;3.00;;
12947;SDS011;6539;49.476;8.484;2023-08-01T08:08:29;4.17;;;2.87;;
12947;SDS011;6539;49.476;8.484;2023-08-01T08:11:22;4.20;;;3.17;;
12947;SDS011;6539;49.476;8.484;2023-08-01T08:14:13;4.50;;;2.90;;
12947;SDS011;6539;49.476;8.484;2023-08-01T08:17:00;3.23;;;2.67;;
12947;SDS011;6539;49.476;8.484;2023-08-01T08:19:48;2.80;;;2.50;;
12947;SDS011;6539;49.476;8.484;2023-08-01T08:22:34;3.10;;;2.80;;
12947;SDS011;6539;49.476;8.484;2023-08-01T08:25:20;3.60;;;2.50;;
12947;SDS011;6539;49.476;8.484;2023-08-01T08:28:07;2.60;;;2.10;;
12947;SDS011;6539;49.476;8.484;2023-08-01T08:30:56;2.20;;;2.00;;
12947;SDS011;6539;49.476;8.484;2023-08-01T08:33:45;7.40;;;3.30;;
12947;SDS011;6539;49.476;8.484;2023-08-01T08:36:31;2.80;;;2.50;;
12947;SDS011;6539;49.476;8.484;2023-08-01T08:39:17;3.00;;;2.30;;
12947;SDS011;6539;49.476;8.484;2023-08-01T08:42:03;2.67;;;2.37;;
12947;SDS011;6539;49.476;8.484;2023-08-01T08:44:54;2.30;;;1.50;;
12947;SDS011;6539;49.476;8.484;2023-08-01T08:47:43;1.30;;;1.20;;
12947;SDS011;6539;49.476;8.484;2023-08-01T08:50:38;1.40;;;1.00;;
12947;SDS011;6539;49.476;8.484;2023-08-01T08:53:26;2.83;;;2.00;;
12947;SDS011;6539;49.476;8.484;2023-08-01T08:56:17;14.97;;;12.30;;
12947;SDS011;6539;49.476;8.484;2023-08-01T08:59:04;3.60;;;3.27;;
12947;SDS011;6539;49.476;8.484;2023-08-01T09:01:50;2.00;;;1.10;;
12947;SDS011;6539;49.476;8.484;2023-08-01T09:04:36;1.80;;;1.10;;
12947;SDS011;6539;49.476;8.484;2023-08-01T09:07:23;4.17;;;3.10;;
12947;SDS011;6539;49.476;8.484;2023-08-01T09:10:14;5.23;;;3.90;;
12947;SDS011;6539;49.476;8.484;2023-08-01T09:13:07;3.37;;;1.80;;
12947;SDS011;6539;49.476;8.484;2023-08-01T09:15:56;6.30;;;4.93;;
12947;SDS011;6539;49.476;8.484;2023-08-01T09:18:46;1.63;;;1.30;;
12947;SDS011;6539;49.476;8.484;2023-08-01T09:21:36;1.80;;;1.13;;
12947;SDS011;6539;49.476;8.484;2023-08-01T09:24:27;1.13;;;1.03;;
12947;SDS011;6539;49.476;8.484;2023-08-01T09:27:13;2.00;;;1.03;;
12947;SDS011;6539;49.476;8.484;2023-08-01T09:30:09;1.67;;;1.10;;
12947;SDS011;6539;49.476;8.484;2023-08-01T09:32:58;1.30;;;0.90;;
12947;SDS011;6539;49.476;8.484;2023-08-01T09:35:45;2.83;;;1.20;;
12947;SDS011;6539;49.476;8.484;2023-08-01T09:38:34;1.20;;;1.10;;
12947;SDS011;6539;49.476;8.484;2023-08-01T09:41:21;1.33;;;1.00;;
12947;SDS011;6539;49.476;8.484;2023-08-01T09:44:11;2.13;;;1.03;;
12947;SDS011;6539;49.476;8.484;2023-08-01T09:47:02;5.33;;;1.20;;
12947;SDS011;6539;49.476;8.484;2023-08-01T09:49:52;1.73;;;1.10;;
12947;SDS011;6539;49.476;8.484;2023-08-01T09:52:39;2.07;;;1.17;;
12947;SDS011;6539;49.476;8.484;2023-08-01T09:58:16;1.13;;;1.07;;
12947;SDS011;6539;49.476;8.484;2023-08-01T10:01:07;2.03;;;1.13;;
12947;SDS011;6539;49.476;8.484;2023-08-01T10:03:54;2.60;;;1.27;;
12947;SDS011;6539;49.476;8.484;2023-08-01T10:06:43;1.50;;;0.97;;
12947;SDS011;6539;49.476;8.484;2023-08-01T10:09:36;2.23;;;1.40;;
12947;SDS011;6539;49.476;8.484;2023-08-01T10:12:23;2.23;;;1.50;;
12947;SDS011;6539;49.476;8.484;2023-08-01T10:15:15;1.53;;;1.23;;
12947;SDS011;6539;49.476;8.484;2023-08-01T10:18:04;2.33;;;1.50;;
12947;SDS011;6539;49.476;8.484;2023-08-01T10:20:50;1.70;;;1.10;;
12947;SDS011;6539;49.476;8.484;2023-08-01T10:23:37;1.47;;;1.37;;
12947;SDS011;6539;49.476;8.484;2023-08-01T10:26:27;1.03;;;1.00;;
12947;SDS011;6539;49.476;8.484;2023-08-01T10:29:13;1.90;;;1.40;;
12947;SDS011;6539;49.476;8.484;2023-08-01T10:31:59;3.07;;;1.47;;
12947;SDS011;6539;49.476;8.484;2023-08-01T10:34:51;2.20;;;1.23;;
12947;SDS011;6539;49.476;8.484;2023-08-01T10:37:46;2.83;;;1.70;;
12947;SDS011;6539;49.476;8.484;2023-08-01T10:40:42;1.33;;;1.20;;
12947;SDS011;6539;49.476;8.484;2023-08-01T10:43:28;3.47;;;2.70;;
12947;SDS011;6539;49.476;8.484;2023-08-01T10:46:17;2.60;;;1.47;;
12947;SDS011;6539;49.476;8.484;2023-08-01T10:49:05;1.47;;;1.30;;
12947;SDS011;6539;49.476;8.484;2023-08-01T10:51:51;1.67;;;1.37;;
12947;SDS011;6539;49.476;8.484;2023-08-01T10:54:40;2.50;;;1.57;;
12947;SDS011;6539;49.476;8.484;2023-08-01T10:57:28;1.40;;;1.20;;
12947;SDS011;6539;49.476;8.484;2023-08-01T11:00:19;2.53;;;1.70;;
12947;SDS011;6539;49.476;8.484;2023-08-01T11:03:06;1.67;;;1.40;;
12947;SDS011;6539;49.476;8.484;2023-08-01T11:05:58;2.27;;;1.67;;
12947;SDS011;6539;49.476;8.484;2023-08-01T11:08:44;1.80;;;1.47;;
12947;SDS011;6539;49.476;8.484;2023-08-01T11:11:32;1.30;;;1.20;;
12947;SDS011;6539;49.476;8.484;2023-08-01T11:14:20;2.37;;;1.40;;
12947;SDS011;6539;49.476;8.484;2023-08-01T11:17:07;1.23;;;1.13;;
12947;SDS011;6539;49.476;8.484;2023-08-01T11:20:07;1.77;;;1.47;;
12947;SDS011;6539;49.476;8.484;2023-08-01T11:23:00;1.30;;;1.20;;
12947;SDS011;6539;49.476;8.484;2023-08-01T11:25:50;2.23;;;1.40;;
12947;SDS011;6539;49.476;8.484;2023-08-01T11:28:38;1.37;;;1.20;;
12947;SDS011;6539;49.476;8.484;2023-08-01T11:31:25;1.83;;;1.40;;
12947;SDS011;6539;49.476;8.484;2023-08-01T11:34:11;1.45;;;1.17;;
12947;SDS011;6539;49.476;8.484;2023-08-01T11:36:56;2.25;;;1.50;;
12947;SDS011;6539;49.476;8.484;2023-08-01T11:39:45;1.92;;;1.30;;
12947;SDS011;6539;49.476;8.484;2023-08-01T11:42:32;1.73;;;1.42;;
12947;SDS011;6539;49.476;8.484;2023-08-01T11:45:20;1.80;;;1.33;;
12947;SDS011;6539;49.476;8.484;2023-08-01T11:48:08;3.08;;;1.90;;
12947;SDS011;6539;49.476;8.484;2023-08-01T11:50:57;2.63;;;1.83;;
12947;SDS011;6539;49.476;8.484;2023-08-01T11:53:45;4.20;;;1.73;;
12947;SDS011;6539;49.476;8.484;2023-08-01T11:56:34;1.70;;;1.40;;
12947;SDS011;6539;49.476;8.484;2023-08-01T11:59:20;2.13;;;1.50;;
12947;SDS011;6539;49.476;8.484;2023-08-01T12:02:08;2.93;;;1.60;;
12947;SDS011;6539;49.476;8.484;2023-08-01T12:04:54;3.60;;;1.57;;
12947;SDS011;6539;49.476;8.484;2023-08-01T12:07:40;2.10;;;1.60;;
12947;SDS011;6539;49.476;8.484;2023-08-01T12:10:36;2.20;;;1.60;;
12947;SDS011;6539;49.476;8.484;2023-08-01T12:13:25;2.83;;;1.60;;
12947;SDS011;6539;49.476;8.484;2023-08-01T12:16:14;3.43;;;1.90;;
12947;SDS011;6539;49.476;8.484;2023-08-01T12:19:05;3.03;;;1.90;;
12947;SDS011;6539;49.476;8.484;2023-08-01T12:21:59;2.97;;;2.10;;
12947;SDS011;6539;49.476;8.484;2023-08-01T12:24:45;3.15;;;1.88;;
12947;SDS011;6539;49.476;8.484;2023-08-01T12:27:31;4.40;;;1.60;;
12947;SDS011;6539;49.476;8.484;2023-08-01T12:30:17;2.70;;;1.90;;
12947;SDS011;6539;49.476;8.484;2023-08-01T12:33:03;2.00;;;1.70;;
12947;SDS011;6539;49.476;8.484;2023-08-01T12:35:49;2.25;;;1.60;;
12947;SDS011;6539;49.476;8.484;2023-08-01T12:38:35;2.90;;;1.70;;
12947;SDS011;6539;49.476;8.484;2023-08-01T12:41:21;1.83;;;1.58;;
12947;SDS011;6539;49.476;8.484;2023-08-01T12:44:07;2.80;;;1.67;;
12947;SDS011;6539;49.476;8.484;2023-08-01T12:46:53;2.63;;;1.20;;
12947;SDS011;6539;49.476;8.484;2023-08-01T12:49:42;2.35;;;1.77;;
12947;SDS011;6539;49.476;8.484;2023-08-01T12:52:28;2.03;;;1.50;;
12947;SDS011;6539;49.476;8.484;2023-08-01T12:55:14;2.05;;;1.45;;
12947;SDS011;6539;49.476;8.484;2023-08-01T12:58:00;2.10;;;1.60;;
12947;SDS011;6539;49.476;8.484;2023-08-01T13:00:49;2.37;;;1.90;;
12947;SDS011;6539;49.476;8.484;2023-08-01T13:03:38;3.47;;;1.90;;
12947;SDS011;6539;49.476;8.484;2023-08-01T13:06:24;4.23;;;2.03;;
12947;SDS011;6539;49.476;8.484;2023-08-01T13:09:12;2.97;;;1.77;;
12947;SDS011;6539;49.476;8.484;2023-08-01T13:12:01;3.37;;;1.57;;
12947;SDS011;6539;49.476;8.484;2023-08-01T13:14:48;4.20;;;1.73;;
12947;SDS011;6539;49.476;8.484;2023-08-01T13:17:36;3.33;;;1.90;;
12947;SDS011;6539;49.476;8.484;2023-08-01T13:20:26;13.47;;;9.13;;
12947;SDS011;6539;49.476;8.484;2023-08-01T13:23:15;8.17;;;6.20;;
12947;SDS011;6539;49.476;8.484;2023-08-01T13:26:04;6.03;;;3.23;;
12947;SDS011;6539;49.476;8.484;2023-08-01T13:28:50;2.97;;;1.90;;
12947;SDS011;6539;49.476;8.484;2023-08-01T13:31:36;3.50;;;1.67;;
12947;SDS011;6539;49.476;8.484;2023-08-01T13:34:27;3.93;;;3.00;;
12947;SDS011;6539;49.476;8.484;2023-08-01T13:37:13;4.57;;;2.13;;
12947;SDS011;6539;49.476;8.484;2023-08-01T13:40:04;1.97;;;1.50;;
12947;SDS011;6539;49.476;8.484;2023-08-01T13:42:54;2.47;;;1.93;;
12947;SDS011;6539;49.476;8.484;2023-08-01T13:45:42;4.20;;;1.90;;
12947;SDS011;6539;49.476;8.484;2023-08-01T13:48:28;2.77;;;2.00;;
12947;SDS011;6539;49.476;8.484;2023-08-01T13:51:14;2.33;;;1.77;;
12947;SDS011;6539;49.476;8.484;2023-08-01T13:54:00;2.37;;;1.50;;
12947;SDS011;6539;49.476;8.484;2023-08-01T13:56:48;2.50;;;1.80;;
12947;SDS011;6539;49.476;8.484;2023-08-01T13:59:39;3.57;;;2.23;;
12947;SDS011;6539;49.476;8.484;2023-08-01T14:02:25;3.57;;;2.07;;
12947;SDS011;6539;49.476;8.484;2023-08-01T14:05:11;2.83;;;1.70;;
12947;SDS011;6539;49.476;8.484;2023-08-01T14:07:57;2.83;;;1.70;;
12947;SDS011;6539;49.476;8.484;2023-08-01T14:10:45;2.30;;;1.53;;
12947;SDS011;6539;49.476;8.484;2023-08-01T14:13:32;5.00;;;2.10;;
12947;SDS011;6539;49.476;8.484;2023-08-01T14:16:19;1.80;;;1.60;;
12947;SDS011;6539;49.476;8.484;2023-08-01T14:19:05;3.20;;;1.80;;
12947;SDS011;6539;49.476;8.484;2023-08-01T14:21:51;4.03;;;2.57;;
12947;SDS011;6539;49.476;8.484;2023-08-01T14:24:37;3.07;;;2.07;;
12947;SDS011;6539;49.476;8.484;2023-08-01T14:27:29;2.63;;;1.63;;
12947;SDS011;6539;49.476;8.484;2023-08-01T14:30:15;2.17;;;1.50;;
12947;SDS011;6539;49.476;8.484;2023-08-01T14:33:04;3.77;;;1.50;;
12947;SDS011;6539;49.476;8.484;2023-08-01T14:35:53;3.47;;;1.70;;
12947;SDS011;6539;49.476;8.484;2023-08-01T14:38:42;1.67;;;1.40;;
12947;SDS011;6539;49.476;8.484;2023-08-01T14:41:28;2.93;;;1.70;;
12947;SDS011;6539;49.476;8.484;2023-08-01T14:44:16;4.47;;;1.90;;
12947;SDS011;6539;49.476;8.484;2023-08-01T14:47:02;1.80;;;1.70;;
12947;SDS011;6539;49.476;8.484;2023-08-01T14:49:49;2.53;;;1.60;;
12947;SDS011;6539;49.476;8.484;2023-08-01T14:52:35;3.47;;;1.60;;
12947;SDS011;6539;49.476;8.484;2023-08-01T14:55:21;3.33;;;1.70;;
12947;SDS011;6539;49.476;8.484;2023-08-01T14:58:09;3.63;;;2.00;;
12947;SDS011;6539;49.476;8.484;2023-08-01T15:00:55;3.70;;;1.93;;
12947;SDS011;6539;49.476;8.484;2023-08-01T15:03:42;3.93;;;2.10;;
12947;SDS011;6539;49.476;8.484;2023-08-01T15:06:31;4.10;;;1.77;;
12947;SDS011;6539;49.476;8.484;2023-08-01T15:09:20;3.33;;;1.60;;
12947;SDS011;6539;49.476;8.484;2023-08-01T15:12:08;2.00;;;1.60;;
12947;SDS011;6539;49.476;8.484;2023-08-01T15:14:55;3.37;;;1.70;;
12947;SDS011;6539;49.476;8.484;2023-08-01T15:17:44;5.03;;;1.80;;
12947;SDS011;6539;49.476;8.484;2023-08-01T15:20:31;3.47;;;1.80;;
12947;SDS011;6539;49.476;8.484;2023-08-01T15:23:20;2.27;;;1.50;;
12947;SDS011;6539;49.476;8.484;2023-08-01T15:26:06;2.93;;;1.60;;
12947;SDS011;6539;49.476;8.484;2023-08-01T15:28:54;2.27;;;1.60;;
12947;SDS011;6539;49.476;8.484;2023-08-01T15:31:43;4.23;;;1.57;;
12947;SDS011;6539;49.476;8.484;2023-08-01T15:34:31;2.30;;;1.63;;
12947;SDS011;6539;49.476;8.484;2023-08-01T15:37:17;3.37;;;1.77;;
12947;SDS011;6539;49.476;8.484;2023-08-01T15:40:03;4.20;;;1.80;;
12947;SDS011;6539;49.476;8.484;2023-08-01T15:42:50;2.43;;;1.90;;
12947;SDS011;6539;49.476;8.484;2023-08-01T15:45:38;4.13;;;2.03;;
12947;SDS011;6539;49.476;8.484;2023-08-01T15:48:24;3.10;;;2.07;;
12947;SDS011;6539;49.476;8.484;2023-08-01T15:51:12;3.40;;;1.80;;
12947;SDS011;6539;49.476;8.484;2023-08-01T15:54:01;3.80;;;2.13;;
12947;SDS011;6539;49.476;8.484;2023-08-01T15:56:50;3.70;;;2.03;;
12947;SDS011;6539;49.476;8.484;2023-08-01T15:59:38;3.93;;;1.70;;
12947;SDS011;6539;49.476;8.484;2023-08-01T16:02:26;3.43;;;2.00;;
12947;SDS011;6539;49.476;8.484;2023-08-01T16:05:12;3.20;;;2.00;;
12947;SDS011;6539;49.476;8.484;2023-08-01T16:07:59;5.03;;;3.73;;
12947;SDS011;6539;49.476;8.484;2023-08-01T16:10:45;2.63;;;1.80;;
12947;SDS011;6539;49.476;8.484;2023-08-01T16:13:33;4.47;;;1.90;;
12947;SDS011;6539;49.476;8.484;2023-08-01T16:16:24;2.77;;;1.87;;
12947;SDS011;6539;49.476;8.484;2023-08-01T16:19:10;2.43;;;2.10;;
12947;SDS011;6539;49.476;8.484;2023-08-01T16:21:58;3.97;;;1.90;;
12947;SDS011;6539;49.476;8.484;2023-08-01T16:24:47;3.50;;;2.00;;
12947;SDS011;6539;49.476;8.484;2023-08-01T16:27:37;3.60;;;1.90;;
12947;SDS011;6539;49.476;8.484;2023-08-01T16:30:23;2.60;;;1.97;;
12947;SDS011;6539;49.476;8.484;2023-08-01T16:33:09;6.20;;;4.07;;
12947;SDS011;6539;49.476;8.484;2023-08-01T16:35:56;3.03;;;1.90;;
12947;SDS011;6539;49.476;8.484;2023-08-01T16:38:42;2.37;;;1.70;;
12947;SDS011;6539;49.476;8.484;2023-08-01T16:41:31;1.93;;;1.70;;
12947;SDS011;6539;49.476;8.484;2023-08-01T16:44:17;4.17;;;2.00;;
12947;SDS011;6539;49.476;8.484;2023-08-01T16:47:03;2.93;;;2.20;;
12947;SDS011;6539;49.476;8.484;2023-08-01T16:49:53;7.03;;;4.37;;
12947;SDS011;6539;49.476;8.484;2023-08-01T16:52:40;3.77;;;3.03;;
12947;SDS011;6539;49.476;8.484;2023-08-01T16:55:26;3.37;;;1.90;;
12947;SDS011;6539;49.476;8.484;2023-08-01T16:58:15;3.57;;;2.20;;
12947;SDS011;6539;49.476;8.484;2023-08-01T17:01:01;3.13;;;1.98;;
12947;SDS011;6539;49.476;8.484;2023-08-01T17:03:49;4.32;;;2.08;;
12947;SDS011;6539;49.476;8.484;2023-08-01T17:06:42;2.70;;;2.33;;